Time;durP1;ratioP1;P1;durP2;ratioP2;P2;SDS_P1;SDS_P2;PMS_P1;PMS_P2;Temp;Humidity;BMP_temperature;BMP_pressure;BME280_temperature;BME280_humidity;BME280_pressure;Samples;Min_cycle;Max_cycle;Signal;HPM_P1;HPM_P2
2023/04/16 00:00:08;;;;;;;1.75;1.65;;;;;;;;;;5019662;28;20489;-62
2023/04/16 00:02:35;;;;;;;1.80;1.70;;;;;;;;;;5019750;28;20273;-62
2023/04/16 00:05:03;;;;;;;1.90;1.80;;;;;;;;;;5019391;28;20206;-61
2023/04/16 00:07:30;;;;;;;1.85;1.75;;;;;;;;;;5019782;28;20202;-61
2023/04/16 00:09:58;;;;;;;1.58;1.48;;;;;;;;;;5020158;28;20309;-61
2023/04/16 00:12:25;;;;;;;1.85;1.75;;;;;;;;;;5019964;28;20206;-62
2023/04/16 00:14:54;;;;;;;1.58;1.48;;;;;;;;;;5019730;28;20206;-61
2023/04/16 00:17:21;;;;;;;1.73;1.63;;;;;;;;;;5019265;28;20321;-61
2023/04/16 00:19:49;;;;;;;1.60;1.50;;;;;;;;;;5019732;28;20206;-61
2023/04/16 00:22:17;;;;;;;1.90;1.80;;;;;;;;;;5019535;28;20213;-61
2023/04/16 00:24:44;;;;;;;1.60;1.50;;;;;;;;;;5019562;28;20595;-61
2023/04/16 00:27:11;;;;;;;1.65;1.55;;;;;;;;;;5019835;28;20289;-61
2023/04/16 00:29:39;;;;;;;1.73;1.63;;;;;;;;;;5019598;28;20222;-61
2023/04/16 00:32:08;;;;;;;1.50;1.40;;;;;;;;;;5019813;28;20212;-61
2023/04/16 00:34:35;;;;;;;1.77;1.67;;;;;;;;;;5019421;28;20269;-61
2023/04/16 00:37:03;;;;;;;1.70;1.60;;;;;;;;;;5019186;28;20237;-61
2023/04/16 00:39:30;;;;;;;1.75;1.65;;;;;;;;;;5019052;28;20234;-61
2023/04/16 00:41:58;;;;;;;1.85;1.75;;;;;;;;;;5019594;28;20241;-62
2023/04/16 00:44:25;;;;;;;1.58;1.48;;;;;;;;;;5019083;28;20578;-61
2023/04/16 00:46:53;;;;;;;1.63;1.52;;;;;;;;;;5019471;28;20203;-62
2023/04/16 00:49:22;;;;;;;1.60;1.50;;;;;;;;;;5019229;28;20311;-61
2023/04/16 00:51:49;;;;;;;1.60;1.50;;;;;;;;;;5019131;28;20569;-61
2023/04/16 00:54:17;;;;;;;1.48;1.38;;;;;;;;;;5019274;28;20218;-62
2023/04/16 00:56:45;;;;;;;1.77;1.67;;;;;;;;;;5018752;28;20232;-61
2023/04/16 00:59:12;;;;;;;1.50;1.40;;;;;;;;;;5018609;28;20210;-61
2023/04/16 01:01:40;;;;;;;1.75;1.65;;;;;;;;;;5018586;28;20591;-61
2023/04/16 01:04:07;;;;;;;1.60;1.50;;;;;;;;;;5018489;28;20665;-61
2023/04/16 01:06:36;;;;;;;1.65;1.55;;;;;;;;;;5018311;28;20203;-61
2023/04/16 01:09:04;;;;;;;1.77;1.67;;;;;;;;;;5018187;28;20212;-61
2023/04/16 01:11:31;;;;;;;1.70;1.60;;;;;;;;;;5018558;28;20610;-61
2023/04/16 01:13:59;;;;;;;1.60;1.50;;;;;;;;;;5018404;28;20210;-61
2023/04/16 01:16:26;;;;;;;1.60;1.50;;;;;;;;;;5018729;28;20233;-61
2023/04/16 01:18:54;;;;;;;1.50;1.40;;;;;;;;;;5018500;28;20217;-62
2023/04/16 01:21:22;;;;;;;1.63;1.52;;;;;;;;;;5018831;28;20285;-61
2023/04/16 01:23:50;;;;;;;1.60;1.50;;;;;;;;;;5018726;28;20206;-62
2023/04/16 01:26:17;;;;;;;1.70;1.60;;;;;;;;;;5018475;28;20253;-62
2023/04/16 01:28:45;;;;;;;1.67;1.58;;;;;;;;;;5017995;28;20268;-62
2023/04/16 01:31:13;;;;;;;1.40;1.30;;;;;;;;;;5018305;28;20301;-62
2023/04/16 01:33:40;;;;;;;1.67;1.58;;;;;;;;;;5018633;28;20206;-61
2023/04/16 01:36:08;;;;;;;1.77;1.67;;;;;;;;;;5018503;28;20313;-62
2023/04/16 01:38:36;;;;;;;1.40;1.30;;;;;;;;;;5017771;28;20296;-62
2023/04/16 01:41:04;;;;;;;1.60;1.50;;;;;;;;;;5018299;28;20210;-61
2023/04/16 01:43:32;;;;;;;1.52;1.42;;;;;;;;;;5017990;28;20588;-61
2023/04/16 01:46:09;;;;;;;1.60;1.50;;;;;;;;;;5018191;28;20297;-61
2023/04/16 01:48:37;;;;;;;1.70;1.60;;;;;;;;;;5018166;28;20541;-61
2023/04/16 01:51:05;;;;;;;1.60;1.50;;;;;;;;;;5018250;28;20296;-61
2023/04/16 01:53:32;;;;;;;1.60;1.50;;;;;;;;;;5017443;28;20206;-61
2023/04/16 01:56:01;;;;;;;1.40;1.30;;;;;;;;;;5018255;28;20213;-61
2023/04/16 01:58:29;;;;;;;1.45;1.35;;;;;;;;;;5018188;28;20309;-61
2023/04/16 02:00:57;;;;;;;1.77;1.67;;;;;;;;;;5017768;28;20525;-61
2023/04/16 02:03:24;;;;;;;1.50;1.40;;;;;;;;;;5017419;28;20234;-61
2023/04/16 02:05:51;;;;;;;1.50;1.40;;;;;;;;;;5017999;28;20210;-62
2023/04/16 02:08:19;;;;;;;1.60;1.50;;;;;;;;;;5017868;28;20503;-62
2023/04/16 02:10:47;;;;;;;1.33;1.23;;;;;;;;;;5017315;28;20272;-62
2023/04/16 02:13:16;;;;;;;1.45;1.33;;;;;;;;;;5017240;28;20603;-61
2023/04/16 02:15:46;;;;;;;1.38;1.27;;;;;;;;;;5017263;28;20456;-61
2023/04/16 02:18:13;;;;;;;1.50;1.40;;;;;;;;;;5017593;28;20253;-61
2023/04/16 02:20:41;;;;;;;1.60;1.50;;;;;;;;;;5017417;28;20205;-61
2023/04/16 02:23:09;;;;;;;1.40;1.30;;;;;;;;;;5017603;28;20213;-61
2023/04/16 02:25:40;;;;;;;1.48;1.38;;;;;;;;;;5017323;28;20232;-61
2023/04/16 02:28:08;;;;;;;1.58;1.48;;;;;;;;;;5017241;28;20202;-61
2023/04/16 02:30:37;;;;;;;1.60;1.50;;;;;;;;;;5017594;28;20296;-61
2023/04/16 02:33:06;;;;;;;1.50;1.40;;;;;;;;;;5017329;28;20206;-62
2023/04/16 02:35:33;;;;;;;1.58;1.48;;;;;;;;;;5017088;28;20309;-62
2023/04/16 02:38:01;;;;;;;1.50;1.40;;;;;;;;;;5017485;28;20325;-61
2023/04/16 02:40:29;;;;;;;1.38;1.27;;;;;;;;;;5017673;28;20275;-61
2023/04/16 02:42:56;;;;;;;1.38;1.27;;;;;;;;;;5017611;28;20256;-61
2023/04/16 02:45:24;;;;;;;1.52;1.42;;;;;;;;;;5017547;28;20206;-61
2023/04/16 02:47:53;;;;;;;1.70;1.60;;;;;;;;;;5017347;28;20210;-61
2023/04/16 02:50:20;;;;;;;1.63;1.52;;;;;;;;;;5017156;28;20233;-61
2023/04/16 02:52:48;;;;;;;1.77;1.67;;;;;;;;;;5016883;28;20297;-61
2023/04/16 02:55:16;;;;;;;1.40;1.30;;;;;;;;;;5016494;28;20206;-61
2023/04/16 02:57:43;;;;;;;1.38;1.27;;;;;;;;;;5016401;28;20236;-61
2023/04/16 03:00:11;;;;;;;1.50;1.40;;;;;;;;;;5016823;28;20268;-61
2023/04/16 03:02:39;;;;;;;1.40;1.30;;;;;;;;;;5016609;28;20332;-61
2023/04/16 03:05:08;;;;;;;1.50;1.40;;;;;;;;;;5016495;28;20206;-61
2023/04/16 03:07:38;;;;;;;1.50;1.40;;;;;;;;;;5017272;28;20203;-61
2023/04/16 03:10:06;;;;;;;1.70;1.60;;;;;;;;;;5016955;28;20221;-62
2023/04/16 03:12:33;;;;;;;1.30;1.20;;;;;;;;;;5017285;28;20714;-62
2023/04/16 03:15:00;;;;;;;1.50;1.40;;;;;;;;;;5016943;28;20237;-61
2023/04/16 03:17:28;;;;;;;1.42;1.33;;;;;;;;;;5016616;28;20238;-61
2023/04/16 03:19:56;;;;;;;1.25;1.15;;;;;;;;;;5017435;28;20306;-61
2023/04/16 03:22:25;;;;;;;1.50;1.40;;;;;;;;;;5017092;28;20242;-61
2023/04/16 03:24:52;;;;;;;1.50;1.40;;;;;;;;;;5017081;28;20268;-61
2023/04/16 03:27:19;;;;;;;1.63;1.52;;;;;;;;;;5016885;28;20203;-62
2023/04/16 03:29:47;;;;;;;1.70;1.60;;;;;;;;;;5017140;28;20207;-62
2023/04/16 03:32:14;;;;;;;1.20;1.10;;;;;;;;;;5017002;28;20210;-61
2023/04/16 03:34:42;;;;;;;1.42;1.33;;;;;;;;;;5020046;28;20495;-62
2023/04/16 03:37:10;;;;;;;1.40;1.30;;;;;;;;;;5020231;28;20526;-62
2023/04/16 03:39:39;;;;;;;1.77;1.50;;;;;;;;;;5020164;28;20206;-62
2023/04/16 03:42:06;;;;;;;1.40;1.30;;;;;;;;;;5020300;28;20210;-62
2023/04/16 03:44:34;;;;;;;1.30;1.20;;;;;;;;;;5020208;28;20288;-61
2023/04/16 03:47:02;;;;;;;1.50;1.40;;;;;;;;;;5020280;28;20650;-61
2023/04/16 03:49:29;;;;;;;1.63;1.52;;;;;;;;;;5020505;28;20228;-62
2023/04/16 03:51:56;;;;;;;1.30;1.20;;;;;;;;;;5020403;28;20296;-61
2023/04/16 03:54:24;;;;;;;1.52;1.42;;;;;;;;;;5019767;28;20291;-61
2023/04/16 03:56:53;;;;;;;1.30;1.20;;;;;;;;;;5020035;28;20611;-62
2023/04/16 03:59:20;;;;;;;1.30;1.20;;;;;;;;;;5020061;28;20217;-61
2023/04/16 04:01:47;;;;;;;1.13;1.02;;;;;;;;;;5020006;28;20293;-61
2023/04/16 04:04:15;;;;;;;1.50;1.40;;;;;;;;;;5019799;28;20237;-61
2023/04/16 04:06:42;;;;;;;1.40;1.30;;;;;;;;;;5019953;28;20220;-61
2023/04/16 04:09:10;;;;;;;1.40;1.30;;;;;;;;;;5019997;28;20207;-61
2023/04/16 04:11:37;;;;;;;1.40;1.30;;;;;;;;;;5020028;28;20485;-62
2023/04/16 04:14:06;;;;;;;1.50;1.40;;;;;;;;;;5019700;28;20210;-62
2023/04/16 04:16:33;;;;;;;1.48;1.38;;;;;;;;;;5019727;28;20260;-62
2023/04/16 04:19:00;;;;;;;1.30;1.20;;;;;;;;;;5019991;28;20218;-61
2023/04/16 04:21:28;;;;;;;1.40;1.30;;;;;;;;;;5019632;28;20214;-62
2023/04/16 04:23:55;;;;;;;1.30;1.20;;;;;;;;;;5019533;28;20252;-61
2023/04/16 04:26:23;;;;;;;1.50;1.40;;;;;;;;;;5019325;28;20469;-61
2023/04/16 04:28:50;;;;;;;1.52;1.25;;;;;;;;;;5019273;28;20202;-61
2023/04/16 04:31:19;;;;;;;1.58;1.48;;;;;;;;;;5019412;28;20219;-61
2023/04/16 04:33:46;;;;;;;1.30;1.20;;;;;;;;;;5019798;28;20207;-62
2023/04/16 04:36:13;;;;;;;1.25;1.15;;;;;;;;;;5019295;28;20206;-61
2023/04/16 04:38:41;;;;;;;1.40;1.30;;;;;;;;;;5019663;28;20510;-61
2023/04/16 04:41:09;;;;;;;1.45;1.35;;;;;;;;;;5019218;28;20217;-62
2023/04/16 04:43:36;;;;;;;1.30;1.20;;;;;;;;;;5019110;28;20297;-62
2023/04/16 04:46:03;;;;;;;0.90;0.90;;;;;;;;;;5018911;28;20214;-61
2023/04/16 04:48:32;;;;;;;0.90;0.90;;;;;;;;;;5019309;28;20600;-61
2023/04/16 04:51:00;;;;;;;1.50;1.40;;;;;;;;;;5019333;28;20221;-61
2023/04/16 04:53:27;;;;;;;1.20;1.10;;;;;;;;;;5019253;28;20210;-61
2023/04/16 04:55:55;;;;;;;1.20;1.10;;;;;;;;;;5018991;28;20592;-62
2023/04/16 04:58:22;;;;;;;1.15;1.05;;;;;;;;;;5018852;28;20622;-62
2023/04/16 05:00:49;;;;;;;1.20;1.10;;;;;;;;;;5018912;28;20603;-61
2023/04/16 05:03:20;;;;;;;1.30;1.20;;;;;;;;;;5018523;28;20569;-61
2023/04/16 05:05:49;;;;;;;1.10;1.00;;;;;;;;;;5019293;28;20229;-61
2023/04/16 05:08:16;;;;;;;1.40;1.30;;;;;;;;;;5019018;28;20221;-61
2023/04/16 05:10:43;;;;;;;1.17;1.08;;;;;;;;;;5018467;28;20215;-61
2023/04/16 05:13:11;;;;;;;1.20;1.10;;;;;;;;;;5018551;28;20210;-61
2023/04/16 05:15:38;;;;;;;1.20;1.10;;;;;;;;;;5018831;28;20225;-61
2023/04/16 05:18:05;;;;;;;1.30;1.20;;;;;;;;;;5019044;28;20253;-62
2023/04/16 05:20:33;;;;;;;1.00;1.00;;;;;;;;;;5018582;28;20282;-62
2023/04/16 05:23:02;;;;;;;1.27;1.17;;;;;;;;;;5018390;28;20206;-61
2023/04/16 05:25:29;;;;;;;1.00;1.00;;;;;;;;;;5018421;28;20214;-61
2023/04/16 05:27:56;;;;;;;1.35;1.25;;;;;;;;;;5018226;28;20203;-61
2023/04/16 05:30:24;;;;;;;1.13;1.02;;;;;;;;;;5017952;28;20272;-62
2023/04/16 05:32:51;;;;;;;1.40;1.30;;;;;;;;;;5018289;28;20601;-61
2023/04/16 05:35:19;;;;;;;1.00;1.00;;;;;;;;;;5017993;28;20206;-61
2023/04/16 05:37:46;;;;;;;1.63;1.20;;;;;;;;;;5017984;28;20225;-61
2023/04/16 05:40:15;;;;;;;1.38;1.27;;;;;;;;;;5018265;28;20221;-61
2023/04/16 05:42:42;;;;;;;1.40;1.30;;;;;;;;;;5018224;28;20475;-61
2023/04/16 05:45:10;;;;;;;1.20;1.10;;;;;;;;;;5018251;28;20210;-61
2023/04/16 05:47:38;;;;;;;1.13;1.02;;;;;;;;;;5018075;28;20264;-62
2023/04/16 05:50:05;;;;;;;1.35;1.25;;;;;;;;;;5018240;28;20206;-62
2023/04/16 05:52:33;;;;;;;1.13;1.05;;;;;;;;;;5018018;28;20238;-61
2023/04/16 05:55:00;;;;;;;1.17;1.08;;;;;;;;;;5018216;28;20218;-61
2023/04/16 05:57:29;;;;;;;1.30;1.20;;;;;;;;;;5017237;28;20229;-61
2023/04/16 05:59:56;;;;;;;1.00;0.98;;;;;;;;;;5017860;28;20619;-61
2023/04/16 06:02:23;;;;;;;1.40;1.30;;;;;;;;;;5017940;28;20268;-61
2023/04/16 06:04:51;;;;;;;1.25;1.15;;;;;;;;;;5017709;28;20206;-61
2023/04/16 06:07:18;;;;;;;1.20;1.10;;;;;;;;;;5017824;28;20206;-61
2023/04/16 06:09:45;;;;;;;0.90;0.90;;;;;;;;;;5017889;28;20206;-61
2023/04/16 06:12:13;;;;;;;1.45;1.35;;;;;;;;;;5017560;28;20214;-62
2023/04/16 06:14:42;;;;;;;1.30;1.20;;;;;;;;;;5017522;28;20641;-62
2023/04/16 06:17:09;;;;;;;1.20;1.10;;;;;;;;;;5017835;28;20230;-62
2023/04/16 06:19:36;;;;;;;1.00;1.00;;;;;;;;;;5017354;28;20226;-61
2023/04/16 06:22:05;;;;;;;1.23;1.13;;;;;;;;;;5017302;28;20218;-61
2023/04/16 06:24:32;;;;;;;1.23;1.13;;;;;;;;;;5017440;28;20574;-61
2023/04/16 06:26:59;;;;;;;1.23;1.13;;;;;;;;;;5017197;28;20218;-62
2023/04/16 06:29:27;;;;;;;1.00;1.00;;;;;;;;;;5018232;28;20551;-62
2023/04/16 06:31:56;;;;;;;1.40;1.30;;;;;;;;;;5017128;28;20218;-62
2023/04/16 06:34:23;;;;;;;1.33;1.23;;;;;;;;;;5017244;28;20206;-61
2023/04/16 06:36:51;;;;;;;1.20;1.10;;;;;;;;;;5017080;28;20221;-61
2023/04/16 06:39:20;;;;;;;1.50;1.40;;;;;;;;;;5017334;28;20240;-61
2023/04/16 06:41:47;;;;;;;1.20;1.10;;;;;;;;;;5017044;28;20489;-62
2023/04/16 06:44:15;;;;;;;1.30;1.20;;;;;;;;;;5017351;28;20210;-61
2023/04/16 06:46:42;;;;;;;1.40;1.30;;;;;;;;;;5017021;28;20601;-61
2023/04/16 06:49:11;;;;;;;1.30;1.20;;;;;;;;;;5017381;28;20214;-61
2023/04/16 06:51:38;;;;;;;1.30;1.20;;;;;;;;;;5017613;28;20461;-61
2023/04/16 06:54:06;;;;;;;1.20;1.10;;;;;;;;;;5017519;28;20206;-61
2023/04/16 06:56:34;;;;;;;1.30;1.20;;;;;;;;;;5017587;28;20214;-62
2023/04/16 06:59:01;;;;;;;1.20;1.10;;;;;;;;;;5017046;28;20241;-61
2023/04/16 07:01:29;;;;;;;1.50;1.40;;;;;;;;;;5017393;28;20629;-61
2023/04/16 07:03:57;;;;;;;1.00;1.00;;;;;;;;;;5017303;28;20242;-61
2023/04/16 07:06:26;;;;;;;1.50;1.40;;;;;;;;;;5017389;28;20214;-61
2023/04/16 07:08:53;;;;;;;1.58;1.48;;;;;;;;;;5020299;28;20324;-61
2023/04/16 07:11:21;;;;;;;1.27;1.17;;;;;;;;;;5020833;28;20217;-61
2023/04/16 07:13:49;;;;;;;1.40;1.30;;;;;;;;;;5021074;28;20290;-62
2023/04/16 07:16:18;;;;;;;1.55;1.40;;;;;;;;;;5021049;28;20242;-61
2023/04/16 07:18:45;;;;;;;1.60;1.50;;;;;;;;;;5020740;28;20267;-61
2023/04/16 07:21:12;;;;;;;1.50;1.40;;;;;;;;;;5020943;28;20206;-62
2023/04/16 07:23:41;;;;;;;1.63;1.45;;;;;;;;;;5020166;28;20213;-62
2023/04/16 07:26:10;;;;;;;2.00;1.80;;;;;;;;;;5020495;28;20458;-62
2023/04/16 07:28:37;;;;;;;2.05;1.40;;;;;;;;;;5020003;28;20210;-62
2023/04/16 07:31:04;;;;;;;1.90;1.80;;;;;;;;;;5020432;28;20207;-62
2023/04/16 07:33:32;;;;;;;1.67;1.45;;;;;;;;;;5020186;28;20237;-62
2023/04/16 07:35:59;;;;;;;2.67;1.67;;;;;;;;;;5019844;28;20489;-61
2023/04/16 07:38:27;;;;;;;1.85;1.67;;;;;;;;;;5020344;28;20237;-62
2023/04/16 07:40:56;;;;;;;1.50;1.40;;;;;;;;;;5020284;28;20618;-62
2023/04/16 07:43:23;;;;;;;1.40;1.30;;;;;;;;;;5019842;28;20247;-62
2023/04/16 07:45:51;;;;;;;1.40;1.30;;;;;;;;;;5020211;28;20587;-62
2023/04/16 07:48:18;;;;;;;1.67;1.58;;;;;;;;;;5019973;28;20703;-62
2023/04/16 07:50:45;;;;;;;1.73;1.63;;;;;;;;;;5019882;28;20214;-61
2023/04/16 07:53:13;;;;;;;1.70;1.60;;;;;;;;;;5019653;28;20237;-61
2023/04/16 07:55:40;;;;;;;1.45;1.35;;;;;;;;;;5019569;28;20213;-61
2023/04/16 07:58:09;;;;;;;1.60;1.50;;;;;;;;;;5019104;28;20230;-62
2023/04/16 08:00:36;;;;;;;1.85;1.52;;;;;;;;;;5019449;28;20233;-62
2023/04/16 08:03:04;;;;;;;1.85;1.63;;;;;;;;;;5020163;28;20494;-62
2023/04/16 08:05:31;;;;;;;1.70;1.60;;;;;;;;;;5019467;28;20217;-62
2023/04/16 08:07:59;;;;;;;1.92;1.75;;;;;;;;;;5019263;28;20590;-61
2023/04/16 08:10:26;;;;;;;2.78;1.80;;;;;;;;;;5019667;28;20218;-61
2023/04/16 08:12:53;;;;;;;1.98;1.77;;;;;;;;;;5019647;28;20493;-62
2023/04/16 08:15:22;;;;;;;1.98;1.42;;;;;;;;;;5019669;28;20214;-62
2023/04/16 08:17:49;;;;;;;1.60;1.45;;;;;;;;;;5019822;28;20578;-62
2023/04/16 08:20:17;;;;;;;2.00;1.60;;;;;;;;;;5018693;28;20615;-62
2023/04/16 08:22:45;;;;;;;1.50;1.40;;;;;;;;;;5018905;28;20214;-62
2023/04/16 08:25:12;;;;;;;1.95;1.70;;;;;;;;;;5018541;28;20297;-62
2023/04/16 08:27:40;;;;;;;1.75;1.65;;;;;;;;;;5018341;28;20586;-62
2023/04/16 08:30:08;;;;;;;1.70;1.42;;;;;;;;;;5019305;28;20209;-62
2023/04/16 08:32:36;;;;;;;1.85;1.70;;;;;;;;;;5019094;28;20214;-61
2023/04/16 08:35:04;;;;;;;1.80;1.58;;;;;;;;;;5019095;28;20206;-62
2023/04/16 08:37:32;;;;;;;3.05;1.70;;;;;;;;;;5018948;28;20486;-62
2023/04/16 08:39:59;;;;;;;1.60;1.50;;;;;;;;;;5019352;28;20238;-62
2023/04/16 08:42:31;;;;;;;3.05;1.95;;;;;;;;;;5018895;28;20206;-62
2023/04/16 08:45:05;;;;;;;1.95;1.52;;;;;;;;;;5018956;28;20214;-61
2023/04/16 08:47:35;;;;;;;2.42;1.60;;;;;;;;;;5018687;28;20210;-61
2023/04/16 08:50:05;;;;;;;1.60;1.50;;;;;;;;;;5018484;28;20210;-62
2023/04/16 08:52:32;;;;;;;1.98;1.67;;;;;;;;;;5018535;28;20578;-62
2023/04/16 08:55:05;;;;;;;1.50;1.40;;;;;;;;;;5018690;28;20213;-62
2023/04/16 08:57:37;;;;;;;1.60;1.50;;;;;;;;;;5018573;28;20241;-62
2023/04/16 09:00:05;;;;;;;2.45;1.77;;;;;;;;;;5019072;28;20566;-62
2023/04/16 09:02:33;;;;;;;1.95;1.80;;;;;;;;;;5017864;28;20242;-61
2023/04/16 09:05:00;;;;;;;1.92;1.70;;;;;;;;;;5018127;28;20599;-62
2023/04/16 09:07:29;;;;;;;1.90;1.75;;;;;;;;;;5018164;28;20293;-61
2023/04/16 09:09:58;;;;;;;1.85;1.70;;;;;;;;;;5018149;28;20202;-62
2023/04/16 09:12:26;;;;;;;1.50;1.40;;;;;;;;;;5017584;28;20217;-62
2023/04/16 09:14:53;;;;;;;2.15;1.45;;;;;;;;;;5018177;28;20221;-62
2023/04/16 09:17:21;;;;;;;1.92;1.70;;;;;;;;;;5018077;28;20610;-62
2023/04/16 09:19:48;;;;;;;2.53;1.60;;;;;;;;;;5018604;28;20240;-62
2023/04/16 09:22:16;;;;;;;1.70;1.60;;;;;;;;;;5018097;28;20556;-62
2023/04/16 09:24:44;;;;;;;1.83;1.70;;;;;;;;;;5018000;28;20210;-62
2023/04/16 09:27:12;;;;;;;1.92;1.80;;;;;;;;;;5017255;28;20210;-62
2023/04/16 09:29:40;;;;;;;2.20;1.50;;;;;;;;;;5018314;28;20210;-62
2023/04/16 09:32:08;;;;;;;1.73;1.63;;;;;;;;;;5017237;28;20527;-62
2023/04/16 09:34:36;;;;;;;1.95;1.75;;;;;;;;;;5017516;28;20206;-62
2023/04/16 09:37:16;;;;;;;1.70;1.60;;;;;;;;;;5017564;28;20233;-62
2023/04/16 09:39:45;;;;;;;2.03;1.77;;;;;;;;;;5017931;28;20272;-62
2023/04/16 09:42:13;;;;;;;1.73;1.48;;;;;;;;;;5017424;28;20210;-62
2023/04/16 09:44:40;;;;;;;1.70;1.60;;;;;;;;;;5017337;28;20210;-62
2023/04/16 09:47:08;;;;;;;1.80;1.70;;;;;;;;;;5017585;28;20206;-62
2023/04/16 09:49:36;;;;;;;2.13;1.58;;;;;;;;;;5017690;28;20656;-62
2023/04/16 09:52:03;;;;;;;1.55;1.40;;;;;;;;;;5017548;28;20594;-62
2023/04/16 09:54:30;;;;;;;1.85;1.60;;;;;;;;;;5017683;28;20236;-62
2023/04/16 09:57:01;;;;;;;2.28;1.80;;;;;;;;;;5017366;28;20213;-62
2023/04/16 09:59:32;;;;;;;1.63;1.50;;;;;;;;;;5017423;28;20262;-62
2023/04/16 10:02:01;;;;;;;1.50;1.40;;;;;;;;;;5017192;28;20214;-62
2023/04/16 10:04:28;;;;;;;1.30;1.20;;;;;;;;;;5017303;28;20221;-62
2023/04/16 10:07:05;;;;;;;1.50;1.40;;;;;;;;;;5016584;28;20210;-62
2023/04/16 10:09:33;;;;;;;1.70;1.60;;;;;;;;;;5016697;28;20213;-62
2023/04/16 10:12:02;;;;;;;1.85;1.65;;;;;;;;;;5017071;28;20206;-62
2023/04/16 10:14:29;;;;;;;2.00;1.58;;;;;;;;;;5017054;28;20216;-62
2023/04/16 10:16:57;;;;;;;2.03;1.42;;;;;;;;;;5017330;28;20217;-62
2023/04/16 10:19:24;;;;;;;2.33;1.85;;;;;;;;;;5017781;28;20621;-62
2023/04/16 10:21:53;;;;;;;1.85;1.70;;;;;;;;;;5017247;28;20206;-62
2023/04/16 10:24:20;;;;;;;1.60;1.50;;;;;;;;;;5016889;28;20213;-62
2023/04/16 10:26:48;;;;;;;2.08;1.40;;;;;;;;;;5016793;28;20214;-62
2023/04/16 10:29:17;;;;;;;1.80;1.70;;;;;;;;;;5016624;28;20225;-62
2023/04/16 10:31:45;;;;;;;2.45;1.80;;;;;;;;;;5016616;28;20296;-62
2023/04/16 10:34:12;;;;;;;1.75;1.60;;;;;;;;;;5016893;28;20268;-62
2023/04/16 10:36:40;;;;;;;2.33;1.70;;;;;;;;;;5016530;28;20205;-62
2023/04/16 10:39:11;;;;;;;2.38;1.52;;;;;;;;;;5016289;28;20230;-62
2023/04/16 10:41:38;;;;;;;1.88;1.67;;;;;;;;;;5016436;28;20213;-62
2023/04/16 10:44:08;;;;;;;1.85;1.50;;;;;;;;;;5016495;28;20217;-62
2023/04/16 10:46:39;;;;;;;2.20;1.73;;;;;;;;;;5016751;28;20293;-62
2023/04/16 10:49:13;;;;;;;1.70;1.50;;;;;;;;;;5016282;28;20560;-62
2023/04/16 10:51:41;;;;;;;1.83;1.70;;;;;;;;;;5016192;28;20209;-62
2023/04/16 10:54:20;;;;;;;1.83;1.73;;;;;;;;;;5016379;28;20206;-62
2023/04/16 10:56:48;;;;;;;1.63;1.52;;;;;;;;;;5016694;28;20214;-61
2023/04/16 10:59:18;;;;;;;2.30;1.77;;;;;;;;;;5016602;28;20229;-61
2023/04/16 11:01:47;;;;;;;1.88;1.45;;;;;;;;;;5016298;28;20205;-61
2023/04/16 11:04:30;;;;;;;1.85;1.58;;;;;;;;;;5016402;28;20482;-61
2023/04/16 11:07:07;;;;;;;2.53;1.60;;;;;;;;;;5014379;28;20217;-61
2023/04/16 11:09:48;;;;;;;2.78;1.52;;;;;;;;;;5016457;28;20214;-61
2023/04/16 11:12:17;;;;;;;2.35;1.63;;;;;;;;;;5016287;28;20206;-61
2023/04/16 11:14:47;;;;;;;1.70;1.60;;;;;;;;;;5016334;28;20316;-61
2023/04/16 11:17:16;;;;;;;1.70;1.60;;;;;;;;;;5015903;28;20211;-61
2023/04/16 11:19:44;;;;;;;2.03;1.70;;;;;;;;;;5016545;28;20669;-61
2023/04/16 11:22:13;;;;;;;1.85;1.50;;;;;;;;;;5015910;28;20217;-61
2023/04/16 11:24:41;;;;;;;1.90;1.70;;;;;;;;;;5016204;28;20268;-61
2023/04/16 11:27:08;;;;;;;1.95;1.50;;;;;;;;;;5016062;28;20206;-61
2023/04/16 11:29:36;;;;;;;1.83;1.70;;;;;;;;;;5015820;28;20213;-61
2023/04/16 11:32:03;;;;;;;2.25;1.40;;;;;;;;;;5015498;28;20206;-61
2023/04/16 11:34:32;;;;;;;2.35;1.63;;;;;;;;;;5015895;28;20210;-61
2023/04/16 11:37:00;;;;;;;2.83;1.60;;;;;;;;;;5015879;28;20206;-61
2023/04/16 11:39:27;;;;;;;1.65;1.55;;;;;;;;;;5015912;28;20712;-61
2023/04/16 11:41:54;;;;;;;1.70;1.27;;;;;;;;;;5015588;28;20523;-61
2023/04/16 11:44:22;;;;;;;1.35;1.25;;;;;;;;;;5015641;28;20213;-61
2023/04/16 11:46:50;;;;;;;2.17;1.38;;;;;;;;;;5016049;28;20221;-61
2023/04/16 11:49:17;;;;;;;1.58;1.38;;;;;;;;;;5015448;28;20586;-61
2023/04/16 11:51:47;;;;;;;1.70;1.38;;;;;;;;;;5015907;28;20221;-61
2023/04/16 11:54:21;;;;;;;1.50;1.20;;;;;;;;;;5015712;28;20221;-61
2023/04/16 11:56:49;;;;;;;1.85;1.30;;;;;;;;;;5019373;28;20221;-61
2023/04/16 11:59:17;;;;;;;1.50;1.40;;;;;;;;;;5019109;28;20217;-61
2023/04/16 12:01:47;;;;;;;1.60;1.50;;;;;;;;;;5018962;28;20210;-61
2023/04/16 12:04:15;;;;;;;1.75;1.20;;;;;;;;;;5018730;28;20229;-61
2023/04/16 12:06:42;;;;;;;1.80;1.42;;;;;;;;;;5019537;28;20234;-61
2023/04/16 12:09:27;;;;;;;1.40;1.30;;;;;;;;;;5018980;28;20214;-61
2023/04/16 12:11:54;;;;;;;1.95;1.50;;;;;;;;;;5019611;28;20241;-61
2023/04/16 12:14:21;;;;;;;1.63;1.20;;;;;;;;;;5018614;28;20214;-62
2023/04/16 12:16:49;;;;;;;1.33;1.15;;;;;;;;;;5018640;28;20218;-61
2023/04/16 12:19:16;;;;;;;1.50;1.30;;;;;;;;;;5018438;28;20214;-61
2023/04/16 12:21:44;;;;;;;1.52;1.40;;;;;;;;;;5018993;28;20467;-61
2023/04/16 12:24:13;;;;;;;1.42;1.33;;;;;;;;;;5018793;28;20403;-62
2023/04/16 12:26:45;;;;;;;1.83;1.17;;;;;;;;;;5018306;28;20206;-61
2023/04/16 12:29:30;;;;;;;1.30;1.20;;;;;;;;;;5018526;28;20203;-61
2023/04/16 12:31:58;;;;;;;1.30;1.20;;;;;;;;;;5018547;28;20815;-62
2023/04/16 12:34:25;;;;;;;1.35;1.25;;;;;;;;;;5018442;28;20206;-61
2023/04/16 12:37:04;;;;;;;1.17;1.08;;;;;;;;;;5017962;28;20217;-61
2023/04/16 12:39:32;;;;;;;2.42;1.38;;;;;;;;;;5017930;28;20214;-61
2023/04/16 12:42:01;;;;;;;1.85;1.20;;;;;;;;;;5018129;28;20207;-61
2023/04/16 12:44:29;;;;;;;1.63;1.50;;;;;;;;;;5018323;28;20207;-61
2023/04/16 12:46:56;;;;;;;1.33;1.23;;;;;;;;;;5017765;28;20242;-61
2023/04/16 12:49:23;;;;;;;1.38;1.02;;;;;;;;;;5018614;28;20206;-61
2023/04/16 12:51:51;;;;;;;1.25;1.15;;;;;;;;;;5017501;28;20217;-61
2023/04/16 12:54:18;;;;;;;1.88;1.00;;;;;;;;;;5017837;28;20590;-62
2023/04/16 12:56:45;;;;;;;1.42;1.20;;;;;;;;;;5018272;28;20210;-62
2023/04/16 12:59:14;;;;;;;1.20;1.10;;;;;;;;;;5017966;28;20259;-61
2023/04/16 13:01:41;;;;;;;2.25;1.40;;;;;;;;;;5018011;28;20520;-61
2023/04/16 13:04:09;;;;;;;1.30;1.20;;;;;;;;;;5018045;28;20514;-61
2023/04/16 13:06:36;;;;;;;1.27;1.17;;;;;;;;;;5018071;28;20313;-61
2023/04/16 13:09:04;;;;;;;1.52;1.30;;;;;;;;;;5017540;28;20210;-62
2023/04/16 13:11:31;;;;;;;1.23;1.10;;;;;;;;;;5017303;28;20249;-61
2023/04/16 13:13:58;;;;;;;1.20;1.10;;;;;;;;;;5017637;28;20579;-61
2023/04/16 13:16:27;;;;;;;1.42;1.08;;;;;;;;;;5017998;28;20210;-62
2023/04/16 13:18:55;;;;;;;1.33;1.00;;;;;;;;;;5017932;28;20206;-62
2023/04/16 13:21:22;;;;;;;1.48;1.25;;;;;;;;;;5017065;28;20241;-62
2023/04/16 13:23:50;;;;;;;1.33;1.23;;;;;;;;;;5016868;28;20301;-61
2023/04/16 13:26:17;;;;;;;1.05;1.00;;;;;;;;;;5017658;28;20493;-61
2023/04/16 13:28:44;;;;;;;1.30;1.20;;;;;;;;;;5017441;28;20206;-61
2023/04/16 13:31:12;;;;;;;1.38;1.10;;;;;;;;;;5017312;28;20202;-62
2023/04/16 13:33:41;;;;;;;1.20;1.00;;;;;;;;;;5017650;28;20566;-61
2023/04/16 13:36:08;;;;;;;1.27;1.17;;;;;;;;;;5017793;28;20214;-61
2023/04/16 13:38:35;;;;;;;1.20;1.10;;;;;;;;;;5017228;28;20214;-61
2023/04/16 13:41:03;;;;;;;1.10;1.00;;;;;;;;;;5017001;28;20233;-61
2023/04/16 13:43:30;;;;;;;1.25;1.13;;;;;;;;;;5017252;28;20293;-61
2023/04/16 13:45:58;;;;;;;1.00;1.00;;;;;;;;;;5016874;28;20658;-61
2023/04/16 13:48:25;;;;;;;1.38;1.10;;;;;;;;;;5016731;28;20233;-62
2023/04/16 13:50:54;;;;;;;1.25;1.15;;;;;;;;;;5017026;28;20210;-61
2023/04/16 13:53:22;;;;;;;1.25;1.15;;;;;;;;;;5017032;28;20206;-61
2023/04/16 13:55:49;;;;;;;1.00;1.00;;;;;;;;;;5017006;28;20202;-61
2023/04/16 13:58:17;;;;;;;1.27;1.17;;;;;;;;;;5017144;28;20206;-61
2023/04/16 14:00:44;;;;;;;1.40;1.30;;;;;;;;;;5016423;28;20707;-61
2023/04/16 14:03:11;;;;;;;1.35;1.17;;;;;;;;;;5016677;28;20249;-61
2023/04/16 14:05:40;;;;;;;1.15;1.02;;;;;;;;;;5016560;28;20214;-61
2023/04/16 14:08:09;;;;;;;1.17;1.08;;;;;;;;;;5017051;28;20260;-62
2023/04/16 14:10:36;;;;;;;1.20;1.08;;;;;;;;;;5016003;28;20198;-61
2023/04/16 14:13:03;;;;;;;1.15;1.05;;;;;;;;;;5016129;28;20241;-61
2023/04/16 14:15:31;;;;;;;1.20;1.10;;;;;;;;;;5015466;28;20213;-61
2023/04/16 14:17:58;;;;;;;1.08;0.98;;;;;;;;;;5015458;28;20198;-61
2023/04/16 14:20:25;;;;;;;1.10;1.00;;;;;;;;;;5016068;28;20273;-61
2023/04/16 14:22:52;;;;;;;1.33;1.23;;;;;;;;;;5016077;28;20205;-61
2023/04/16 14:25:21;;;;;;;0.88;0.88;;;;;;;;;;5015982;28;20347;-61
2023/04/16 14:27:48;;;;;;;1.10;1.00;;;;;;;;;;5015758;28;20602;-61
2023/04/16 14:30:16;;;;;;;1.20;1.10;;;;;;;;;;5016718;28;20212;-62
2023/04/16 14:32:43;;;;;;;1.05;1.05;;;;;;;;;;5016368;28;20380;-61
2023/04/16 14:35:11;;;;;;;1.50;1.00;;;;;;;;;;5016437;28;20206;-61
2023/04/16 14:37:38;;;;;;;1.08;0.98;;;;;;;;;;5016158;28;20206;-61
2023/04/16 14:40:07;;;;;;;1.17;1.10;;;;;;;;;;5016931;28;20631;-61
2023/04/16 14:42:37;;;;;;;1.35;1.25;;;;;;;;;;5016163;28;20210;-61
2023/04/16 14:45:05;;;;;;;0.90;0.90;;;;;;;;;;5016563;28;20231;-61
2023/04/16 14:47:33;;;;;;;1.83;1.02;;;;;;;;;;5016080;28;20341;-61